KOMA

Eppley Airfield Airport

Omaha, Nebraska, USA
METAR KOMA 181052Z 16007KT 10SM CLR 07/03 A3044 RMK AO2 SLP308 T00670033
Observed Flight Rules
Oct-18 @ 10:52 UTC (41 minutes ago) Visual Flight Rules
Wind Visibility Clouds
160° at 7 knots 10 miles
  • Clear skies
Temperatures Readings
Current 7°C / 45°F
Dewpoint 3°C / 37°F
Humidity 76%
Altimeter 30.44" Hg
Pressure 1030.8 hPa
Elevation 312
METAR KOMA 181052Z 16007KT 10SM CLR 07/03 A3044 RMK AO2 SLP308 T00670033
Observed Flight Rules
Oct-18 @ 10:52 UTC
(41 minutes ago)
VFR
Wind Visibility
160° at 7 knots 10 miles
Clouds
  • Clear skies
Temperature Dewpoint
7°C / 45°F 3°C / 37°F
Humidity Altimeter Pressure
76% 30.44" Hg 1030.8 hPa